Time;durP1;ratioP1;P1;durP2;ratioP2;P2;SDS_P1;SDS_P2;PMS_P1;PMS_P2;Temp;Humidity;BMP_temperature;BMP_pressure;BME280_temperature;BME280_humidity;BME280_pressure;Samples;Min_cycle;Max_cycle;Signal;HPM_P1;HPM_P2
2022/01/05 00:01:21;;;;;;;15.75;4.47;;;;;;;8.93;46.84;98978.81;5073570;28;20598;-68
2022/01/05 00:03:48;;;;;;;13.48;4.40;;;;;;;8.64;47.30;98981.63;5074642;28;20435;-68
2022/01/05 00:06:15;;;;;;;8.73;3.83;;;;;;;8.40;48.13;98989.00;5077061;28;20071;-68
2022/01/05 00:08:41;;;;;;;12.73;3.25;;;;;;;8.68;47.37;98980.22;5075285;28;20044;-68
2022/01/05 00:11:07;;;;;;;9.73;3.15;;;;;;;8.56;47.62;98988.75;5076937;28;20047;-69
2022/01/05 00:13:34;;;;;;;12.75;3.72;;;;;;;8.28;48.33;98995.81;5076770;28;20404;-70
2022/01/05 00:16:00;;;;;;;15.80;3.60;;;;;;;8.48;47.54;98996.88;5075597;28;20047;-69
2022/01/05 00:18:27;;;;;;;10.95;3.17;;;;;;;8.38;47.98;98999.84;5076612;28;20064;-69
2022/01/05 00:20:53;;;;;;;8.35;3.20;;;;;;;8.43;47.77;98991.25;5075840;28;20462;-71
2022/01/05 00:23:19;;;;;;;7.78;2.50;;;;;;;8.66;46.69;98987.63;5073204;28;20092;-69
2022/01/05 00:25:46;;;;;;;9.35;2.72;;;;;;;8.48;47.30;98990.72;5075208;28;20127;-69
2022/01/05 00:28:13;;;;;;;9.27;3.15;;;;;;;8.45;47.47;98991.09;5076032;28;20551;-69
2022/01/05 00:30:39;;;;;;;6.70;2.65;;;;;;;8.37;47.83;98997.38;5075625;28;20131;-69
2022/01/05 00:33:06;;;;;;;9.25;3.00;;;;;;;8.03;48.20;99009.50;5075585;28;20044;-69
2022/01/05 00:35:32;;;;;;;9.98;2.47;;;;;;;7.94;48.69;98999.91;5075146;28;20052;-69
2022/01/05 00:37:59;;;;;;;11.40;2.45;;;;;;;7.69;48.89;98996.69;5076669;28;20131;-69
2022/01/05 00:40:26;;;;;;;10.35;2.63;;;;;;;8.00;48.48;98988.50;5076293;28;20076;-69
2022/01/05 00:42:52;;;;;;;10.48;2.28;;;;;;;7.91;48.72;98994.94;5074740;28;20064;-69
2022/01/05 00:45:19;;;;;;;10.93;2.45;;;;;;;8.10;48.15;98978.34;5074287;28;20119;-69
2022/01/05 00:47:45;;;;;;;11.30;2.17;;;;;;;8.08;47.84;98988.38;5074448;28;20539;-69
2022/01/05 00:50:12;;;;;;;14.80;2.42;;;;;;;8.06;47.99;98982.41;5075284;28;20132;-69
2022/01/05 00:52:38;;;;;;;10.05;2.40;;;;;;;8.12;47.62;98986.16;5074887;28;20136;-69
2022/01/05 00:55:05;;;;;;;8.10;1.92;;;;;;;8.18;47.75;98984.59;5057101;28;20045;-69
2022/01/05 00:57:32;;;;;;;13.65;1.85;;;;;;;8.22;47.42;98981.38;5074163;28;20120;-69
2022/01/05 00:59:58;;;;;;;8.60;1.80;;;;;;;8.32;47.37;98975.72;5074625;28;20047;-69
2022/01/05 01:02:24;;;;;;;8.93;2.35;;;;;;;8.07;48.08;98981.41;5075188;28;20132;-69
2022/01/05 01:04:51;;;;;;;13.75;2.05;;;;;;;8.24;47.39;98978.53;5072199;28;20048;-69
2022/01/05 01:07:18;;;;;;;11.15;1.98;;;;;;;8.05;47.95;98971.91;5074897;28;20051;-69
2022/01/05 01:09:45;;;;;;;15.25;2.40;;;;;;;8.30;47.27;98967.09;5075493;28;20120;-69
2022/01/05 01:12:11;;;;;;;11.93;2.35;;;;;;;8.08;47.43;98964.34;5075422;28;20131;-69
2022/01/05 01:14:38;;;;;;;7.53;1.92;;;;;;;7.93;48.13;98973.41;5075782;28;20131;-69
2022/01/05 01:17:04;;;;;;;11.07;2.88;;;;;;;7.96;47.63;98968.53;5074928;28;20043;-69
2022/01/05 01:19:31;;;;;;;6.65;1.73;;;;;;;7.96;47.76;98973.88;5072840;28;20140;-69
2022/01/05 01:21:58;;;;;;;16.23;2.35;;;;;;;8.24;47.47;98981.19;5075102;28;20044;-69
2022/01/05 01:24:26;;;;;;;12.88;2.22;;;;;;;8.40;46.86;98989.00;5074258;28;20052;-69
2022/01/05 01:26:52;;;;;;;12.45;2.22;;;;;;;8.44;46.84;98989.44;5074769;28;20441;-69
2022/01/05 01:29:19;;;;;;;16.00;2.15;;;;;;;8.45;46.87;98985.75;5073361;28;20421;-69
2022/01/05 01:31:47;;;;;;;10.15;2.00;;;;;;;8.48;46.59;98985.38;5073806;28;20083;-69
2022/01/05 01:34:14;;;;;;;10.85;1.83;;;;;;;8.53;46.50;98982.94;5053907;28;20076;-69
2022/01/05 01:36:40;;;;;;;13.63;2.10;;;;;;;8.44;46.53;98982.25;5055193;28;20464;-69
2022/01/05 01:39:07;;;;;;;4.72;1.50;;;;;;;8.39;46.88;98987.31;5053626;28;20127;-69
2022/01/05 01:41:33;;;;;;;10.52;2.42;;;;;;;8.56;46.57;98988.75;5054498;28;20068;-70
2022/01/05 01:44:00;;;;;;;7.03;1.67;;;;;;;8.58;46.36;98981.38;5054788;28;20493;-69
2022/01/05 01:46:26;;;;;;;8.77;2.03;;;;;;;8.61;46.24;98983.66;5053682;28;20052;-69
2022/01/05 01:48:53;;;;;;;9.38;1.90;;;;;;;8.37;47.08;98984.84;5052513;28;20072;-69
2022/01/05 01:51:19;;;;;;;9.32;1.98;;;;;;;8.48;46.95;98982.69;5054004;28;20545;-69
2022/01/05 01:53:46;;;;;;;12.52;2.15;;;;;;;8.17;47.32;98981.13;5050254;28;20128;-69
2022/01/05 01:56:13;;;;;;;9.10;2.08;;;;;;;8.37;47.07;98979.50;5053683;28;20549;-69
2022/01/05 01:58:40;;;;;;;7.70;1.85;;;;;;;8.10;47.25;98972.19;5054918;28;20068;-69
2022/01/05 02:01:06;;;;;;;10.07;1.52;;;;;;;7.55;48.35;98970.81;5053369;28;20120;-69
2022/01/05 02:03:33;;;;;;;8.98;2.03;;;;;;;8.19;47.02;98963.03;5052287;28;20091;-69
2022/01/05 02:09:40;;;;;;;7.13;1.75;;;;;;;7.95;47.62;98953.53;5073084;28;20094;-69
2022/01/05 02:12:08;;;;;;;14.27;2.20;;;;;;;8.31;46.85;98956.19;5071179;28;20403;-69
2022/01/05 02:14:35;;;;;;;10.27;2.25;;;;;;;7.94;48.10;98962.53;5071422;28;20079;-69
2022/01/05 02:17:10;;;;;;;6.65;1.60;;;;;;;8.13;47.26;98964.63;5074320;28;20462;-69
2022/01/05 02:19:37;;;;;;;17.65;2.15;;;;;;;7.88;47.83;98963.28;5073365;28;20477;-69
2022/01/05 02:22:04;;;;;;;13.18;1.88;;;;;;;7.80;47.91;98958.00;5073989;28;20079;-69
2022/01/05 02:24:31;;;;;;;6.57;1.95;;;;;;;7.86;47.94;98960.81;5074358;28;20044;-69
2022/01/05 02:26:57;;;;;;;8.02;1.90;;;;;;;7.85;48.05;98967.16;5074626;28;20072;-69
2022/01/05 02:29:24;;;;;;;10.85;1.85;;;;;;;7.78;48.06;98970.72;5074975;28;20048;-69
2022/01/05 02:31:51;;;;;;;9.93;1.83;;;;;;;7.77;48.37;98975.22;5068970;28;20396;-69
2022/01/05 02:34:18;;;;;;;6.70;2.00;;;;;;;7.74;48.35;98978.28;5058242;28;20404;-69
2022/01/05 02:36:45;;;;;;;12.07;1.90;;;;;;;7.75;48.29;98981.78;5058276;28;20056;-69
2022/01/05 02:39:12;;;;;;;12.63;2.10;;;;;;;7.74;48.19;98982.78;5057845;28;20055;-69
2022/01/05 02:41:38;;;;;;;9.30;1.90;;;;;;;8.01;47.66;98982.13;5058053;28;20091;-69
2022/01/05 02:44:05;;;;;;;9.32;1.60;;;;;;;8.27;47.25;98984.31;5055649;28;20064;-69
2022/01/05 02:46:32;;;;;;;12.90;2.30;;;;;;;8.21;47.33;98985.06;5056854;28;20149;-69
2022/01/05 02:48:59;;;;;;;10.77;1.55;;;;;;;7.83;47.47;98985.16;5056276;28;20040;-69
2022/01/05 02:51:26;;;;;;;9.82;1.88;;;;;;;7.35;48.95;98982.00;5056832;28;20056;-69
2022/01/05 02:53:52;;;;;;;13.07;1.73;;;;;;;7.69;48.28;98971.84;5056712;28;20072;-69
2022/01/05 02:56:19;;;;;;;11.63;2.05;;;;;;;8.17;47.32;98977.63;5055699;28;20049;-69
2022/01/05 02:58:45;;;;;;;8.85;1.67;;;;;;;8.16;47.40;98976.78;5056806;28;20128;-69
2022/01/05 03:01:12;;;;;;;12.95;2.38;;;;;;;8.14;47.25;98984.97;5057614;28;20055;-69
2022/01/05 03:03:38;;;;;;;9.68;1.40;;;;;;;8.36;46.63;98985.88;5056663;28;20434;-69
2022/01/05 03:06:05;;;;;;;8.50;1.65;;;;;;;7.70;47.84;98992.16;5056751;28;20068;-69
2022/01/05 03:08:32;;;;;;;7.28;1.73;;;;;;;8.13;46.96;98988.69;5056182;28;20131;-69
2022/01/05 03:10:59;;;;;;;15.68;2.47;;;;;;;8.07;47.25;98985.91;5056470;28;20185;-69
2022/01/05 03:13:26;;;;;;;12.63;2.10;;;;;;;7.86;47.66;98984.84;5056813;28;20118;-69
2022/01/05 03:15:54;;;;;;;7.30;1.90;;;;;;;8.24;46.60;98975.84;5056795;28;20073;-69
2022/01/05 03:18:21;;;;;;;13.25;1.95;;;;;;;8.29;46.39;98970.75;5057194;28;20077;-69
2022/01/05 03:20:47;;;;;;;8.93;2.05;;;;;;;8.41;46.26;98969.25;5056457;28;20135;-69
2022/01/05 03:23:14;;;;;;;14.40;1.70;;;;;;;8.21;46.89;98968.22;5053309;28;20543;-69
2022/01/05 03:25:42;;;;;;;8.98;1.63;;;;;;;8.03;46.64;98958.75;5057895;28;20481;-69
2022/01/05 03:28:09;;;;;;;5.65;1.30;;;;;;;8.04;46.72;98970.25;5056344;28;20077;-69
2022/01/05 03:30:35;;;;;;;13.57;2.13;;;;;;;8.29;46.23;98982.28;5055769;28;20128;-69
2022/01/05 03:33:11;;;;;;;10.43;1.30;;;;;;;8.11;46.13;98979.19;5064649;28;20052;-69
2022/01/05 03:35:45;;;;;;;9.38;2.60;;;;;;;7.82;47.06;98986.19;5076532;28;20540;-69
2022/01/05 03:38:15;;;;;;;7.35;1.70;;;;;;;8.04;46.17;98972.94;5096928;28;20060;-69
2022/01/05 03:40:43;;;;;;;12.60;1.55;;;;;;;8.38;45.63;98980.31;5096862;28;20070;-69
2022/01/05 03:43:11;;;;;;;13.73;1.80;;;;;;;8.18;45.62;98980.09;5095966;28;20042;-69
2022/01/05 03:45:39;;;;;;;13.13;1.85;;;;;;;8.17;46.38;98977.63;5095445;28;20105;-69
2022/01/05 03:48:08;;;;;;;13.63;1.85;;;;;;;7.86;46.26;98982.16;5096236;28;20048;-69
2022/01/05 03:50:35;;;;;;;10.48;1.55;;;;;;;8.02;46.02;98980.28;5096328;28;20040;-69
2022/01/05 03:53:04;;;;;;;7.18;2.13;;;;;;;8.21;45.56;98985.06;5096718;28;20134;-69
2022/01/05 03:55:32;;;;;;;11.30;1.63;;;;;;;8.18;45.91;98979.25;5096451;28;20079;-69
2022/01/05 03:57:58;;;;;;;9.18;1.90;;;;;;;7.55;47.37;98984.16;5097139;28;20071;-69
2022/01/05 04:00:27;;;;;;;11.48;1.77;;;;;;;7.68;46.90;98991.53;5095976;28;20450;-69
2022/01/05 04:02:54;;;;;;;10.95;1.63;;;;;;;7.65;46.81;98990.88;5096489;28;20044;-69
2022/01/05 04:05:20;;;;;;;14.13;1.70;;;;;;;7.44;47.17;98990.78;5096496;28;20080;-69
2022/01/05 04:07:47;;;;;;;7.93;1.63;;;;;;;6.92;47.75;98992.41;5095538;28;20064;-69
2022/01/05 04:10:13;;;;;;;8.65;1.20;;;;;;;6.97;47.57;98999.03;5097164;28;20039;-69
2022/01/05 04:12:40;;;;;;;9.02;1.38;;;;;;;6.78;47.56;99003.84;5097077;28;20123;-68
2022/01/05 04:15:07;;;;;;;6.93;1.50;;;;;;;6.72;47.91;98999.22;5097309;28;20070;-69
2022/01/05 04:17:33;;;;;;;13.60;1.73;;;;;;;6.52;48.47;99006.84;5096640;28;20040;-69
2022/01/05 04:20:00;;;;;;;18.90;1.75;;;;;;;6.51;48.20;98999.03;5093835;28;20107;-69
2022/01/05 04:22:27;;;;;;;15.10;2.13;;;;;;;6.23;49.38;99005.63;5095802;28;20135;-69
2022/01/05 04:24:54;;;;;;;5.57;1.20;;;;;;;5.95;50.03;99015.91;5095767;28;20066;-69
2022/01/05 04:27:20;;;;;;;11.82;1.42;;;;;;;5.99;50.22;99008.41;5096645;28;20050;-69
2022/01/05 04:29:47;;;;;;;10.68;1.50;;;;;;;5.72;50.58;99013.16;5093029;28;20067;-69
2022/01/05 04:32:14;;;;;;;10.57;1.35;;;;;;;6.38;49.53;99007.59;5063048;28;20080;-69
2022/01/05 04:34:40;;;;;;;8.18;1.17;;;;;;;6.05;50.30;99023.69;5042513;28;20064;-69
2022/01/05 04:37:26;;;;;;;7.60;1.27;;;;;;;6.29;49.54;99020.13;5053717;28;20048;-69
2022/01/05 04:39:53;;;;;;;16.13;1.42;;;;;;;5.92;50.76;99026.06;5061868;28;20048;-69
2022/01/05 04:42:19;;;;;;;12.65;1.50;;;;;;;5.94;50.92;99018.72;5055683;28;20473;-69
2022/01/05 04:44:46;;;;;;;9.20;1.27;;;;;;;6.39;49.94;99019.91;5056563;28;20472;-69
2022/01/05 04:47:12;;;;;;;13.65;1.65;;;;;;;6.31;50.32;99019.94;5068134;28;20492;-69
2022/01/05 04:49:39;;;;;;;8.20;1.65;;;;;;;6.18;50.55;99013.34;5075919;28;20064;-69
2022/01/05 04:52:06;;;;;;;8.68;1.30;;;;;;;5.90;50.84;99014.75;5075684;28;20135;-69
2022/01/05 04:54:32;;;;;;;11.63;1.40;;;;;;;6.04;51.00;99021.19;5063505;28;20068;-69
2022/01/05 04:56:59;;;;;;;8.48;1.30;;;;;;;6.08;51.22;99036.69;5055231;28;20044;-69
2022/01/05 04:59:26;;;;;;;10.38;2.00;;;;;;;6.58;49.89;99014.13;5055316;28;20091;-69
2022/01/05 05:01:52;;;;;;;8.38;1.65;;;;;;;6.17;50.93;99014.31;5054476;28;20462;-69
2022/01/05 05:04:19;;;;;;;9.18;1.42;;;;;;;5.66;51.72;99021.81;5055278;28;20051;-69
2022/01/05 05:06:46;;;;;;;9.60;1.60;;;;;;;5.87;51.62;99007.13;5055484;28;20072;-69
2022/01/05 05:09:13;;;;;;;11.40;1.60;;;;;;;6.21;50.60;98996.16;5054634;28;20088;-69
2022/01/05 05:11:39;;;;;;;10.15;1.38;;;;;;;6.50;50.01;98995.53;5067882;28;20100;-69
2022/01/05 05:14:06;;;;;;;13.23;2.20;;;;;;;6.20;50.59;98990.00;5075246;28;20040;-69
2022/01/05 05:16:32;;;;;;;12.70;1.48;;;;;;;6.68;49.32;98987.25;5075925;28;20054;-69
2022/01/05 05:18:59;;;;;;;9.70;1.25;;;;;;;6.55;49.75;99000.34;5073618;28;20044;-69
2022/01/05 05:21:25;;;;;;;12.45;1.75;;;;;;;6.57;49.92;98996.50;5073851;28;20076;-69
2022/01/05 05:23:52;;;;;;;9.85;1.42;;;;;;;6.73;49.18;98981.38;5074353;28;20049;-69
2022/01/05 05:26:18;;;;;;;12.45;1.48;;;;;;;6.61;49.71;99002.31;5072941;28;20051;-69
2022/01/05 05:28:45;;;;;;;8.95;1.40;;;;;;;6.60;49.42;99004.13;5074834;28;20127;-69
2022/01/05 05:31:11;;;;;;;10.18;1.90;;;;;;;6.34;50.10;98991.13;5073737;28;20052;-68
2022/01/05 05:33:38;;;;;;;7.57;1.30;;;;;;;6.85;49.26;98998.63;5089313;28;20047;-69
2022/01/05 05:36:05;;;;;;;11.95;1.52;;;;;;;6.47;49.77;98988.72;5093314;28;20046;-69
2022/01/05 05:38:31;;;;;;;15.95;1.95;;;;;;;6.36;50.23;98996.31;5093405;28;20480;-69
2022/01/05 05:40:58;;;;;;;9.48;1.40;;;;;;;6.34;50.30;98987.66;5094258;28;20073;-69
2022/01/05 05:43:24;;;;;;;19.23;2.30;;;;;;;5.91;51.53;98995.97;5095614;28;20134;-69
2022/01/05 05:45:51;;;;;;;14.23;2.10;;;;;;;6.27;50.42;99000.81;5095515;28;20111;-69
2022/01/05 05:48:18;;;;;;;16.08;2.10;;;;;;;6.32;50.34;99002.97;5094790;28;20456;-69
2022/01/05 05:50:44;;;;;;;11.43;2.20;;;;;;;6.10;51.14;99000.03;5094771;28;20108;-69
2022/01/05 05:53:11;;;;;;;15.70;2.08;;;;;;;6.75;49.55;99001.53;5093504;28;20048;-69
2022/01/05 05:55:38;;;;;;;12.13;1.80;;;;;;;6.52;50.06;99006.84;5094454;28;20498;-68
2022/01/05 05:58:04;;;;;;;11.48;1.85;;;;;;;5.82;51.68;99007.63;5093245;28;20082;-69
2022/01/05 06:00:31;;;;;;;15.70;2.10;;;;;;;5.96;51.18;99014.91;5093007;28;20044;-69
2022/01/05 06:02:59;;;;;;;5.00;1.52;;;;;;;5.93;51.45;99025.88;5091929;28;20127;-69
2022/01/05 06:05:26;;;;;;;12.98;1.70;;;;;;;6.22;50.93;99025.28;5092885;28;20079;-69
2022/01/05 06:07:53;;;;;;;8.80;1.50;;;;;;;6.49;49.96;99020.50;5093215;28;20044;-69
2022/01/05 06:10:19;;;;;;;11.18;1.95;;;;;;;6.20;50.68;99021.97;5093110;28;20060;-69
2022/01/05 06:12:46;;;;;;;12.82;1.50;;;;;;;5.93;51.14;99017.09;5094783;28;20547;-69
2022/01/05 06:15:12;;;;;;;9.88;1.80;;;;;;;6.29;50.12;99011.28;5094904;28;20118;-69
2022/01/05 06:17:39;;;;;;;19.83;1.90;;;;;;;6.31;50.32;99011.97;5081557;28;20080;-69
2022/01/05 06:20:07;;;;;;;18.60;2.13;;;;;;;6.55;49.63;99014.47;5089243;28;20068;-69
2022/01/05 06:22:37;;;;;;;13.35;2.40;;;;;;;6.37;49.76;99008.59;5075122;28;20045;-69
2022/01/05 06:25:04;;;;;;;11.77;2.10;;;;;;;6.42;49.93;99023.03;5073451;28;20147;-69
2022/01/05 06:27:30;;;;;;;15.10;2.00;;;;;;;6.58;49.51;99016.78;5074999;28;20051;-69
2022/01/05 06:29:56;;;;;;;17.55;2.53;;;;;;;6.32;50.33;99030.44;5074244;28;20131;-70
2022/01/05 06:32:23;;;;;;;16.63;2.50;;;;;;;6.52;50.01;99033.47;5073642;28;20417;-69
2022/01/05 06:34:49;;;;;;;12.68;1.90;;;;;;;6.37;50.32;99028.06;5074126;28;20068;-69
2022/01/05 06:37:17;;;;;;;7.65;1.98;;;;;;;6.00;51.03;99039.34;5074809;28;20048;-69
2022/01/05 06:39:43;;;;;;;9.52;2.00;;;;;;;6.66;49.61;99045.22;5074857;28;20041;-69
2022/01/05 06:42:10;;;;;;;10.13;1.55;;;;;;;6.42;49.79;99046.19;5075206;28;20536;-69
2022/01/05 06:44:36;;;;;;;12.00;1.70;;;;;;;6.38;50.26;99050.22;5074362;28;20131;-69
2022/01/05 06:47:04;;;;;;;9.80;1.52;;;;;;;6.23;50.77;99045.59;5073541;28;20037;-70
2022/01/05 06:49:31;;;;;;;17.13;2.28;;;;;;;6.27;50.16;99063.91;5073617;28;20131;-69
2022/01/05 06:51:58;;;;;;;18.23;1.98;;;;;;;6.51;49.86;99066.47;5076433;28;20550;-68
2022/01/05 06:54:24;;;;;;;9.60;2.00;;;;;;;6.86;48.78;99070.41;5072881;28;20076;-69
2022/01/05 06:56:51;;;;;;;12.25;2.38;;;;;;;6.76;49.22;99063.66;5075161;28;20071;-70
2022/01/05 06:59:17;;;;;;;14.75;2.20;;;;;;;6.38;49.79;99068.84;5076260;28;20124;-68
2022/01/05 07:01:44;;;;;;;10.63;2.58;;;;;;;6.03;50.87;99070.94;5075267;28;20078;-68
2022/01/05 07:04:10;;;;;;;15.40;2.50;;;;;;;6.11;50.81;99073.56;5074669;28;20067;-69
2022/01/05 07:06:37;;;;;;;13.88;1.98;;;;;;;6.18;50.70;99085.22;5073330;28;20128;-68
2022/01/05 07:09:05;;;;;;;14.55;1.92;;;;;;;6.22;50.47;99091.03;5074318;28;20119;-68
2022/01/05 07:11:32;;;;;;;8.57;2.30;;;;;;;5.61;52.03;99092.50;5074079;28;20076;-68
2022/01/05 07:13:58;;;;;;;15.38;3.08;;;;;;;5.97;51.02;99084.94;5074645;28;20068;-67
2022/01/05 07:16:25;;;;;;;15.60;2.53;;;;;;;6.57;49.55;99108.41;5072713;28;20049;-67
2022/01/05 07:18:52;;;;;;;17.55;2.85;;;;;;;6.56;49.65;99100.56;5076856;28;20400;-67
2022/01/05 07:21:18;;;;;;;11.73;2.85;;;;;;;6.21;50.32;99098.16;5077675;28;20127;-67
2022/01/05 07:23:45;;;;;;;17.25;2.25;;;;;;;6.37;49.92;99091.16;5077300;28;20049;-67
2022/01/05 07:26:11;;;;;;;13.20;2.53;;;;;;;6.24;50.14;99097.84;5075965;28;20128;-69
2022/01/05 07:28:38;;;;;;;17.90;3.20;;;;;;;6.33;49.88;99095.19;5077286;28;20131;-68
2022/01/05 07:31:05;;;;;;;21.92;3.00;;;;;;;6.51;49.52;99092.28;5076364;28;20135;-68
2022/01/05 07:33:31;;;;;;;14.57;3.05;;;;;;;6.12;49.98;99091.22;5077522;28;20472;-68
2022/01/05 07:35:58;;;;;;;12.15;2.78;;;;;;;6.20;49.50;99101.03;5077768;28;20059;-68
2022/01/05 07:38:26;;;;;;;16.88;3.13;;;;;;;6.11;49.89;99100.19;5076935;28;20068;-68
2022/01/05 07:40:53;;;;;;;13.20;2.60;;;;;;;6.11;50.04;99092.22;5077562;28;20044;-68
2022/01/05 07:43:22;;;;;;;17.05;2.67;;;;;;;5.94;50.41;99090.59;5077887;28;20052;-68
2022/01/05 07:45:49;;;;;;;17.00;2.22;;;;;;;6.14;49.66;99096.38;5078106;28;20048;-68
2022/01/05 07:48:16;;;;;;;12.70;2.70;;;;;;;6.17;49.83;99096.84;5078005;28;20068;-69
2022/01/05 07:50:42;;;;;;;16.20;3.13;;;;;;;5.98;50.15;99097.25;5077143;28;20068;-68
2022/01/05 07:53:09;;;;;;;19.75;2.15;;;;;;;5.80;50.71;99099.28;5076961;28;20063;-68
2022/01/05 07:55:36;;;;;;;18.20;2.28;;;;;;;5.68;50.72;99102.28;5077630;28;20075;-68
2022/01/05 07:58:02;;;;;;;22.42;2.53;;;;;;;5.73;50.76;99097.31;5076978;28;20451;-68
2022/01/05 08:00:35;;;;;;;18.13;2.90;;;;;;;5.88;50.25;99100.13;5075936;28;20056;-68
2022/01/05 08:03:02;;;;;;;13.27;3.25;;;;;;;6.36;49.20;99100.19;5076456;28;20116;-69
2022/01/05 08:05:28;;;;;;;19.23;2.67;;;;;;;6.42;48.85;99094.97;5076468;28;20518;-68
2022/01/05 08:07:55;;;;;;;11.02;2.30;;;;;;;6.33;49.01;99101.34;5077544;28;20104;-68
2022/01/05 08:10:21;;;;;;;25.60;2.60;;;;;;;5.84;50.00;99092.66;5075473;28;20059;-68
2022/01/05 08:12:48;;;;;;;14.82;1.90;;;;;;;6.13;49.51;99094.72;5076884;28;20131;-68
2022/01/05 08:15:15;;;;;;;17.63;3.10;;;;;;;5.95;49.50;99093.09;5076982;28;20445;-68
2022/01/05 08:17:42;;;;;;;18.85;3.88;;;;;;;5.92;49.60;99112.06;5075404;28;20056;-69
2022/01/05 08:20:13;;;;;;;11.52;2.40;;;;;;;6.56;48.15;99112.03;5076033;28;20074;-69
2022/01/05 08:22:44;;;;;;;13.80;2.17;;;;;;;6.43;48.28;99111.78;5076870;28;20096;-69
2022/01/05 08:25:14;;;;;;;11.60;2.20;;;;;;;6.20;48.08;99111.66;5077432;28;20071;-70
2022/01/05 08:27:47;;;;;;;11.65;2.03;;;;;;;5.91;48.83;99117.59;5076201;28;20136;-69
2022/01/05 08:30:22;;;;;;;19.10;3.10;;;;;;;5.97;47.89;99122.19;5074984;28;20056;-69
2022/01/05 08:32:51;;;;;;;18.40;2.65;;;;;;;6.02;47.72;99119.88;5076803;28;20439;-68
2022/01/05 08:35:20;;;;;;;12.00;2.42;;;;;;;6.27;47.73;99114.50;5074447;28;20099;-69
2022/01/05 08:37:47;;;;;;;12.90;2.92;;;;;;;6.29;47.18;99115.16;5075535;28;20476;-69
2022/01/05 08:40:17;;;;;;;21.80;3.00;;;;;;;6.13;47.28;99100.88;5074707;28;20155;-69
2022/01/05 08:42:44;;;;;;;18.17;2.38;;;;;;;5.99;47.60;99104.25;5058204;28;20068;-68
2022/01/05 08:45:12;;;;;;;15.25;1.88;;;;;;;6.25;46.68;99111.97;5075737;28;20090;-68
2022/01/05 08:47:38;;;;;;;19.08;2.75;;;;;;;6.09;47.58;99112.03;5073852;28;20071;-69
2022/01/05 08:50:05;;;;;;;15.40;2.78;;;;;;;6.29;46.83;99117.81;5075398;28;20055;-68
2022/01/05 08:52:32;;;;;;;15.45;2.55;;;;;;;5.53;48.44;99112.78;5075218;28;20096;-68
2022/01/05 08:54:58;;;;;;;17.08;2.63;;;;;;;6.39;46.60;99121.09;5075739;28;20060;-69
2022/01/05 08:57:25;;;;;;;24.20;3.47;;;;;;;5.86;47.44;99109.25;5074022;28;20049;-68
2022/01/05 08:59:51;;;;;;;18.25;2.03;;;;;;;5.11;48.67;99114.75;5075957;28;20136;-69
2022/01/05 09:02:18;;;;;;;15.85;2.78;;;;;;;6.00;46.76;99112.03;5074191;28;20112;-69
2022/01/05 09:04:48;;;;;;;15.27;2.65;;;;;;;5.54;47.72;99121.59;5075598;28;20049;-69
2022/01/05 09:07:15;;;;;;;10.52;2.50;;;;;;;5.80;47.10;99123.22;5074293;28;20044;-68
2022/01/05 09:09:41;;;;;;;26.73;2.72;;;;;;;5.97;46.57;99124.88;5073925;28;20400;-69
2022/01/05 09:12:09;;;;;;;19.90;3.00;;;;;;;5.70;46.81;99126.91;5073792;28;20044;-69
2022/01/05 09:14:35;;;;;;;17.58;2.95;;;;;;;5.92;46.27;99125.38;5073656;28;20048;-69
2022/01/05 09:17:03;;;;;;;16.52;3.40;;;;;;;6.00;45.94;99133.34;5075403;28;20044;-69
2022/01/05 09:19:29;;;;;;;22.08;3.47;;;;;;;5.33;46.83;99131.91;5074159;28;20549;-70
2022/01/05 09:21:56;;;;;;;14.73;2.60;;;;;;;5.68;46.13;99142.22;5073538;28;20058;-71
2022/01/05 09:24:42;;;;;;;17.58;2.17;;;;;;;5.94;45.75;99135.84;5059741;28;20049;-70
2022/01/05 09:27:09;;;;;;;19.73;3.20;;;;;;;5.45;46.25;99141.22;5072674;28;20042;-70
2022/01/05 09:29:40;;;;;;;17.63;2.53;;;;;;;5.72;45.68;99148.84;5069877;28;20086;-71
2022/01/05 09:32:09;;;;;;;26.20;3.15;;;;;;;5.85;45.40;99151.00;5055764;28;20040;-71
2022/01/05 09:34:36;;;;;;;24.50;2.55;;;;;;;6.08;44.87;99152.97;5073939;28;20068;-70
2022/01/05 09:37:21;;;;;;;13.95;2.85;;;;;;;6.21;44.69;99156.75;5074608;28;20051;-68
2022/01/05 09:42:33;;;;;;;20.08;3.63;;;;;;;5.69;45.15;99151.00;5073951;28;20075;-71
2022/01/05 09:45:06;;;;;;;16.38;2.00;;;;;;;6.52;43.99;99150.69;5071123;28;20500;-71
2022/01/05 09:48:14;;;;;;;18.92;2.67;;;;;;;5.89;44.76;99162.16;5074587;28;20406;-72
2022/01/05 09:50:54;;;;;;;21.73;2.88;;;;;;;6.15;44.38;99162.78;5041212;28;20488;-71
2022/01/05 09:53:23;;;;;;;11.10;2.35;;;;;;;6.43;44.60;99160.56;5071154;28;20079;-71
2022/01/05 09:55:54;;;;;;;28.02;3.85;;;;;;;6.17;44.77;99168.75;5073750;28;20452;-71
2022/01/05 09:58:22;;;;;;;14.60;2.43;;;;;;;6.45;44.07;99168.38;5074060;28;20128;-70
2022/01/05 10:00:50;;;;;;;19.35;3.30;;;;;;;6.57;43.83;99171.53;5076185;28;20313;-71
2022/01/05 10:03:18;;;;;;;14.73;2.83;;;;;;;6.24;43.88;99167.06;5075139;28;20044;-71
2022/01/05 10:05:45;;;;;;;35.72;3.25;;;;;;;6.27;44.09;99163.28;5075314;28;20136;-72
2022/01/05 10:08:12;;;;;;;23.55;2.58;;;;;;;6.33;44.07;99161.78;5076517;28;20131;-71
2022/01/05 10:10:40;;;;;;;17.00;3.50;;;;;;;6.14;43.88;99158.44;5074922;28;20072;-71
2022/01/05 10:13:07;;;;;;;17.67;3.40;;;;;;;6.60;43.51;99166.69;5074479;28;20124;-71
2022/01/05 10:15:35;;;;;;;13.60;3.40;;;;;;;6.11;43.89;99176.59;5073648;28;20155;-72
2022/01/05 10:18:18;;;;;;;19.17;2.75;;;;;;;6.54;43.08;99167.34;5070383;28;20048;-71
2022/01/05 10:21:02;;;;;;;16.40;3.33;;;;;;;7.18;42.06;99164.53;5074739;28;20226;-71
2022/01/05 10:23:36;;;;;;;22.25;3.28;;;;;;;6.41;42.75;99167.06;5075619;28;20127;-71
2022/01/05 10:26:21;;;;;;;17.33;3.25;;;;;;;6.53;43.17;99160.38;5073875;28;20132;-70
2022/01/05 10:28:49;;;;;;;12.48;2.47;;;;;;;6.68;42.68;99166.63;5074747;28;20056;-71
2022/01/05 10:31:17;;;;;;;18.58;2.47;;;;;;;6.30;42.72;99159.44;5074576;28;20392;-71
2022/01/05 10:33:44;;;;;;;22.08;2.90;;;;;;;6.57;42.37;99166.19;5054042;28;20055;-71
2022/01/05 10:36:11;;;;;;;17.35;2.85;;;;;;;7.03;41.52;99167.13;5073348;28;20087;-72
2022/01/05 10:38:37;;;;;;;20.02;3.15;;;;;;;6.33;42.93;99159.13;5074989;28;20098;-71
2022/01/05 10:41:17;;;;;;;15.77;2.85;;;;;;;6.33;43.12;99167.09;5073130;28;20068;-71
2022/01/05 10:44:20;;;;;;;20.90;2.42;;;;;;;6.30;42.99;99170.09;5072987;28;20135;-71
2022/01/05 10:46:50;;;;;;;27.25;3.85;;;;;;;6.51;42.25;99173.03;5072883;28;20567;-71
2022/01/05 10:49:37;;;;;;;20.52;3.30;;;;;;;6.55;42.39;99162.84;5073198;28;20055;-71
2022/01/05 10:52:23;;;;;;;18.85;2.95;;;;;;;6.55;42.37;99163.69;5072267;28;20113;-71
2022/01/05 10:54:50;;;;;;;15.95;2.60;;;;;;;7.64;40.28;99161.88;5075261;28;20052;-71
2022/01/05 10:57:17;;;;;;;15.18;2.78;;;;;;;7.49;40.86;99164.47;5077147;28;20060;-71
2022/01/05 10:59:49;;;;;;;19.83;3.70;;;;;;;7.26;40.74;99159.16;5076991;28;20102;-71
2022/01/05 11:02:27;;;;;;;16.42;2.35;;;;;;;7.28;40.78;99158.97;5077385;28;20493;-71
2022/01/05 11:05:11;;;;;;;26.15;3.53;;;;;;;6.94;41.40;99157.50;5077273;28;20044;-71
2022/01/05 11:07:39;;;;;;;17.17;3.03;;;;;;;7.30;40.69;99152.47;5076365;28;20465;-71
2022/01/05 11:10:09;;;;;;;14.88;3.03;;;;;;;6.82;41.19;99156.25;5076496;28;20481;-71
2022/01/05 11:12:38;;;;;;;12.75;3.03;;;;;;;6.92;41.18;99148.88;5077067;28;20048;-71
2022/01/05 11:15:18;;;;;;;13.70;2.95;;;;;;;6.93;41.17;99155.84;5076533;28;20090;-70
2022/01/05 11:18:04;;;;;;;16.58;2.53;;;;;;;6.23;42.16;99164.59;5075669;28;20118;-70
2022/01/05 11:20:30;;;;;;;18.58;3.08;;;;;;;6.35;42.18;99157.91;5076752;28;20040;-70
2022/01/05 11:22:57;;;;;;;24.33;2.78;;;;;;;6.79;41.30;99145.94;5078033;28;20051;-71
2022/01/05 11:25:24;;;;;;;20.58;2.75;;;;;;;6.56;41.84;99159.19;5076807;28;20051;-70
2022/01/05 11:27:50;;;;;;;15.93;2.70;;;;;;;7.51;39.66;99150.97;5075260;28;20485;-70
2022/01/05 11:30:17;;;;;;;19.25;2.63;;;;;;;6.79;41.36;99144.09;5077222;28;20119;-70
2022/01/05 11:32:45;;;;;;;17.83;3.30;;;;;;;7.19;40.69;99150.22;5077891;28;20076;-70
2022/01/05 11:35:11;;;;;;;18.83;2.83;;;;;;;7.18;40.69;99135.19;5077653;28;20123;-69
2022/01/05 11:37:37;;;;;;;19.35;3.85;;;;;;;7.41;40.10;99136.03;5066571;28;20044;-70
2022/01/05 11:40:05;;;;;;;21.90;2.55;;;;;;;7.13;39.72;99134.91;5076222;28;20040;-71
2022/01/05 11:42:36;;;;;;;14.13;3.13;;;;;;;6.99;40.39;99135.66;5075888;28;20067;-70
2022/01/05 11:45:06;;;;;;;12.70;2.88;;;;;;;7.71;39.05;99129.94;5076307;28;20543;-70
2022/01/05 11:47:38;;;;;;;19.33;2.80;;;;;;;7.39;39.80;99130.03;5075077;28;20067;-70